Time;durP1;ratioP1;P1;durP2;ratioP2;P2;SDS_P1;SDS_P2;PMS_P1;PMS_P2;Temp;Humidity;BMP_temperature;BMP_pressure;BME280_temperature;BME280_humidity;BME280_pressure;Samples;Min_cycle;Max_cycle;Signal;HPM_P1;HPM_P2
2021/07/05 00:01:21;;;;;;;10.05;4.82;;;;;;;28.15;39.58;98975.62;4497191;31;33980;-63
2021/07/05 00:03:48;;;;;;;10.85;4.53;;;;;;;28.16;39.59;98970.97;4486731;31;33540;-63
2021/07/05 00:06:16;;;;;;;14.57;4.97;;;;;;;28.15;39.69;98970.16;4493169;31;33307;-64
2021/07/05 00:08:43;;;;;;;8.23;4.75;;;;;;;28.14;39.58;98964.94;4481917;32;34771;-63
2021/07/05 00:11:11;;;;;;;10.77;5.15;;;;;;;28.14;39.60;98970.44;4488525;31;34354;-63
2021/07/05 00:13:38;;;;;;;9.20;4.97;;;;;;;28.15;39.60;98972.06;4490788;31;33682;-64
2021/07/05 00:16:06;;;;;;;6.93;4.30;;;;;;;28.14;39.63;98970.44;4494166;31;33974;-63
2021/07/05 00:18:33;;;;;;;8.65;4.97;;;;;;;28.14;39.61;98963.03;4486628;31;33943;-63
2021/07/05 00:21:01;;;;;;;7.50;4.75;;;;;;;28.13;39.37;98969.63;4483392;32;33941;-64
2021/07/05 00:23:28;;;;;;;10.15;4.60;;;;;;;28.13;39.51;98966.88;4487585;31;33500;-64
2021/07/05 00:25:56;;;;;;;6.53;4.80;;;;;;;28.12;39.53;98957.00;4490767;31;33554;-63
2021/07/05 00:28:23;;;;;;;7.60;4.12;;;;;;;28.13;39.52;98968.81;4499193;31;33650;-63
2021/07/05 00:30:51;;;;;;;9.73;5.10;;;;;;;28.12;39.13;98967.97;4490652;31;34342;-63
2021/07/05 00:33:18;;;;;;;7.87;4.87;;;;;;;28.12;39.01;98961.66;4488888;31;33365;-63
2021/07/05 00:35:46;;;;;;;7.80;4.43;;;;;;;28.11;39.28;98960.00;4483063;32;33942;-64
2021/07/05 00:38:15;;;;;;;11.12;4.68;;;;;;;28.11;39.28;98957.25;4489110;31;34052;-64
2021/07/05 00:40:42;;;;;;;8.43;4.32;;;;;;;28.11;39.36;98960.81;4489535;31;33409;-63
2021/07/05 00:43:10;;;;;;;10.00;4.60;;;;;;;28.13;39.46;98960.56;4482471;31;33544;-63
2021/07/05 00:45:37;;;;;;;11.27;4.90;;;;;;;28.13;39.49;98955.09;4483260;32;33919;-63
2021/07/05 00:48:05;;;;;;;8.25;4.78;;;;;;;28.11;39.61;98957.25;4486142;31;34643;-63
2021/07/05 00:50:32;;;;;;;8.20;4.60;;;;;;;28.10;39.59;98955.63;4500926;31;33699;-64
2021/07/05 00:53:01;;;;;;;9.70;5.00;;;;;;;28.09;39.35;98954.81;4498796;31;33536;-63
2021/07/05 00:55:29;;;;;;;7.85;5.10;;;;;;;28.09;39.42;98951.25;4483159;31;33995;-63
2021/07/05 00:57:56;;;;;;;6.65;4.87;;;;;;;28.10;39.38;98948.22;4485402;31;34082;-63
2021/07/05 01:00:24;;;;;;;9.75;4.22;;;;;;;28.10;39.58;98952.88;4485088;32;34116;-64
2021/07/05 01:02:52;;;;;;;7.55;4.78;;;;;;;28.08;39.70;98955.91;4491773;31;33736;-64
2021/07/05 01:05:21;;;;;;;7.93;4.10;;;;;;;28.09;39.77;98954.81;4500848;31;34776;-64
2021/07/05 01:07:49;;;;;;;7.70;4.97;;;;;;;28.09;39.75;98954.00;4500718;31;35099;-63
2021/07/05 01:10:18;;;;;;;10.43;4.53;;;;;;;28.10;39.75;98958.38;4500660;31;33686;-64
2021/07/05 01:12:45;;;;;;;9.32;4.32;;;;;;;28.09;39.92;98954.00;4493220;31;33445;-64
2021/07/05 01:15:20;;;;;;;10.27;5.00;;;;;;;28.08;39.72;98955.91;4484998;32;34601;-63
2021/07/05 01:17:48;;;;;;;10.48;4.95;;;;;;;28.10;39.85;98956.44;4484806;32;34138;-64
2021/07/05 01:20:20;;;;;;;9.77;4.80;;;;;;;28.09;39.88;98952.06;4484880;32;34634;-63
2021/07/05 01:22:49;;;;;;;12.80;5.35;;;;;;;28.10;39.82;98953.72;4490893;31;33107;-64
2021/07/05 01:25:20;;;;;;;8.82;4.90;;;;;;;28.09;39.87;98954.81;4500330;31;33573;-64
2021/07/05 01:27:48;;;;;;;13.70;4.82;;;;;;;28.07;39.75;98950.69;4500590;31;34145;-63
2021/07/05 01:30:17;;;;;;;9.15;5.20;;;;;;;28.07;39.51;98950.69;4500476;31;33949;-64
2021/07/05 01:32:48;;;;;;;15.30;4.32;;;;;;;28.08;39.70;98944.94;4494759;31;34131;-63
2021/07/05 01:35:15;;;;;;;6.75;4.30;;;;;;;28.09;39.69;98954.81;4485382;31;34298;-64
2021/07/05 01:37:43;;;;;;;11.73;5.25;;;;;;;28.08;39.47;98950.44;4484754;32;34058;-64
2021/07/05 01:40:18;;;;;;;10.23;4.90;;;;;;;28.07;39.55;98951.53;4484743;32;33899;-63
2021/07/05 01:42:53;;;;;;;9.80;4.97;;;;;;;28.07;39.48;98953.44;4489976;31;33341;-63
2021/07/05 01:45:23;;;;;;;11.07;4.78;;;;;;;28.07;39.43;98951.53;4500344;31;34073;-64
2021/07/05 01:47:50;;;;;;;10.77;4.87;;;;;;;28.06;39.57;98963.59;4498910;31;34736;-64
2021/07/05 01:50:18;;;;;;;13.93;4.78;;;;;;;28.09;39.59;98963.03;4500357;31;34286;-63
2021/07/05 01:52:46;;;;;;;10.80;5.15;;;;;;;28.07;39.66;98956.19;4494612;31;34476;-63
2021/07/05 01:55:14;;;;;;;9.70;5.30;;;;;;;28.07;39.53;98959.78;4484261;32;34660;-63
2021/07/05 01:57:41;;;;;;;7.18;5.15;;;;;;;28.05;39.53;98956.47;4484552;32;33722;-64
2021/07/05 02:00:12;;;;;;;10.23;4.95;;;;;;;28.05;39.29;98964.69;4483972;32;33870;-65
2021/07/05 02:02:40;;;;;;;9.55;4.62;;;;;;;28.04;39.33;98964.97;4488732;31;33165;-64
2021/07/05 02:05:10;;;;;;;6.87;5.00;;;;;;;28.05;39.35;98961.94;4500433;31;35142;-64
2021/07/05 02:07:38;;;;;;;10.70;5.03;;;;;;;28.04;39.26;98965.78;4500318;31;33684;-64
2021/07/05 02:10:10;;;;;;;11.00;4.70;;;;;;;28.05;39.42;98966.63;4500337;31;35248;-64
2021/07/05 02:12:38;;;;;;;7.53;4.75;;;;;;;28.04;39.55;98964.97;4496046;31;34612;-63
2021/07/05 02:15:07;;;;;;;9.20;5.28;;;;;;;28.03;39.46;98964.16;4484370;32;33900;-65
2021/07/05 02:17:35;;;;;;;8.05;5.15;;;;;;;28.04;39.42;98970.47;4484320;32;34121;-63
2021/07/05 02:20:08;;;;;;;7.87;4.82;;;;;;;28.04;39.43;98964.97;4484500;32;33849;-64
2021/07/05 02:22:35;;;;;;;8.23;4.80;;;;;;;28.04;39.50;98973.22;4487122;31;33477;-64
2021/07/05 02:25:08;;;;;;;7.78;5.20;;;;;;;28.04;39.57;98971.28;4499936;31;34038;-63
2021/07/05 02:27:37;;;;;;;7.97;4.55;;;;;;;28.06;39.62;98982.78;4500281;31;34196;-64
2021/07/05 02:30:05;;;;;;;7.30;4.68;;;;;;;28.04;39.66;98982.25;4500259;31;34415;-64
2021/07/05 02:32:32;;;;;;;9.35;5.03;;;;;;;28.04;39.74;98986.91;4497503;31;33490;-64
2021/07/05 02:35:00;;;;;;;6.37;4.53;;;;;;;28.04;39.77;98989.66;4484223;32;33833;-63
2021/07/05 02:37:28;;;;;;;7.97;5.18;;;;;;;28.04;39.65;98986.91;4484169;32;35134;-63
2021/07/05 02:39:55;;;;;;;9.40;5.25;;;;;;;28.03;39.68;98979.78;4484253;32;34412;-64
2021/07/05 02:42:23;;;;;;;9.45;5.20;;;;;;;28.03;39.66;98988.03;4485255;31;33749;-63
2021/07/05 02:44:50;;;;;;;8.38;5.35;;;;;;;28.04;39.68;98990.47;4499879;31;33854;-64
2021/07/05 02:47:17;;;;;;;7.30;4.97;;;;;;;28.04;39.70;98997.88;4500063;31;34029;-64
2021/07/05 02:49:45;;;;;;;7.87;5.15;;;;;;;28.02;39.61;98995.41;4499919;31;34406;-63
2021/07/05 02:52:13;;;;;;;7.50;5.30;;;;;;;28.01;39.67;98993.75;4499616;31;33121;-63
2021/07/05 02:54:40;;;;;;;8.95;4.90;;;;;;;28.02;39.55;98995.41;4483897;31;33846;-64
2021/07/05 02:57:08;;;;;;;7.55;5.03;;;;;;;28.03;39.44;98999.00;4484204;32;34074;-64
2021/07/05 02:59:35;;;;;;;8.90;5.03;;;;;;;28.03;39.56;98996.25;4484020;32;34526;-63
2021/07/05 03:02:03;;;;;;;8.45;5.35;;;;;;;28.01;39.53;98998.44;4484183;32;34305;-64
2021/07/05 03:04:31;;;;;;;8.00;4.95;;;;;;;28.00;39.57;99003.09;4498715;31;34659;-64
2021/07/05 03:06:58;;;;;;;10.27;5.03;;;;;;;28.00;39.62;99003.09;4499750;31;33953;-63
2021/07/05 03:09:26;;;;;;;7.12;4.50;;;;;;;28.00;39.71;99005.84;4500266;31;33679;-64
2021/07/05 03:11:53;;;;;;;8.13;5.30;;;;;;;28.00;39.81;99005.84;4498811;31;33554;-63
2021/07/05 03:14:21;;;;;;;7.47;5.15;;;;;;;28.01;39.85;99009.41;4485839;31;34375;-63
2021/07/05 03:16:48;;;;;;;9.73;5.40;;;;;;;28.01;39.80;99003.91;4483787;32;33981;-63
2021/07/05 03:19:16;;;;;;;8.90;4.85;;;;;;;28.02;39.82;99003.63;4484426;32;34666;-63
2021/07/05 03:21:43;;;;;;;7.68;5.30;;;;;;;28.02;39.77;99006.38;4483910;32;33441;-63
2021/07/05 03:24:10;;;;;;;8.98;5.40;;;;;;;28.03;39.80;99012.69;4495711;31;34085;-63
2021/07/05 03:26:38;;;;;;;8.18;5.25;;;;;;;28.02;39.88;99014.59;4499819;31;34219;-63
2021/07/05 03:29:06;;;;;;;7.00;5.00;;;;;;;28.01;39.92;99007.47;4499488;31;34179;-63
2021/07/05 03:31:33;;;;;;;9.15;5.50;;;;;;;28.00;39.94;99011.31;4499755;31;33800;-63
2021/07/05 03:34:01;;;;;;;8.20;5.25;;;;;;;28.02;39.83;99014.59;4488696;31;34734;-63
2021/07/05 03:36:29;;;;;;;9.13;5.55;;;;;;;28.01;39.94;99012.97;4483758;32;34001;-62
2021/07/05 03:38:57;;;;;;;10.38;5.35;;;;;;;28.01;40.02;99020.38;4483928;32;33998;-64
2021/07/05 03:41:25;;;;;;;8.55;5.18;;;;;;;28.01;40.06;99020.38;4483852;32;33704;-63
2021/07/05 03:43:52;;;;;;;8.20;5.60;;;;;;;28.03;39.97;99021.75;4492870;31;34640;-63
2021/07/05 03:46:20;;;;;;;9.93;5.70;;;;;;;28.04;40.01;99022.56;4499562;31;34093;-64
2021/07/05 03:48:47;;;;;;;8.02;5.62;;;;;;;28.04;40.00;99030.78;4499615;31;34091;-63
2021/07/05 03:51:15;;;;;;;8.02;5.32;;;;;;;28.04;39.97;99022.56;4499415;31;34631;-64
2021/07/05 03:53:43;;;;;;;8.60;5.50;;;;;;;28.02;40.00;99025.56;4489739;31;33909;-64
2021/07/05 03:56:10;;;;;;;10.75;5.37;;;;;;;28.03;39.97;99027.22;4483645;32;32977;-64
2021/07/05 03:58:38;;;;;;;13.82;6.10;;;;;;;28.03;39.98;99023.66;4483547;32;32779;-63
2021/07/05 04:01:05;;;;;;;10.80;5.32;;;;;;;28.02;40.01;99028.31;4483577;32;33235;-63
2021/07/05 04:03:33;;;;;;;8.73;5.70;;;;;;;28.05;39.95;99037.91;4483336;32;34653;-63
2021/07/05 04:06:00;;;;;;;11.02;5.60;;;;;;;28.05;39.94;99032.44;4483457;32;33863;-63
2021/07/05 04:08:29;;;;;;;9.02;6.05;;;;;;;28.04;40.00;99031.63;4489792;31;33990;-63
2021/07/05 04:10:57;;;;;;;8.90;5.43;;;;;;;28.04;40.02;99034.34;4498854;31;33546;-64
2021/07/05 04:13:27;;;;;;;9.88;5.32;;;;;;;28.05;40.02;99035.16;4498288;31;34829;-62
2021/07/05 04:15:54;;;;;;;7.75;5.35;;;;;;;28.04;40.02;99039.84;4498991;31;33790;-64
2021/07/05 04:18:22;;;;;;;8.85;5.40;;;;;;;28.05;39.99;99032.44;4499013;31;34025;-63
2021/07/05 04:20:50;;;;;;;8.27;4.87;;;;;;;28.04;39.98;99044.50;4499227;31;33643;-64
2021/07/05 04:23:17;;;;;;;8.90;5.22;;;;;;;28.03;40.06;99043.69;4499715;31;33196;-64
2021/07/05 04:25:45;;;;;;;9.68;5.85;;;;;;;28.04;39.96;99045.31;4500745;31;34126;-63
2021/07/05 04:28:12;;;;;;;12.27;5.93;;;;;;;28.05;40.01;99048.87;4500995;31;33921;-64
2021/07/05 04:30:40;;;;;;;8.88;5.60;;;;;;;28.03;40.02;99048.34;4501038;31;33498;-63
2021/07/05 04:33:08;;;;;;;10.70;5.68;;;;;;;28.04;40.07;99050.00;4496794;31;35111;-64
2021/07/05 04:35:35;;;;;;;8.25;5.45;;;;;;;28.02;40.11;99054.91;4485207;32;34174;-63
2021/07/05 04:38:03;;;;;;;11.70;5.18;;;;;;;28.02;40.07;99054.91;4485079;32;34594;-64
2021/07/05 04:40:33;;;;;;;8.45;5.53;;;;;;;28.00;40.14;99052.44;4485055;32;33485;-63
2021/07/05 04:43:00;;;;;;;10.88;5.60;;;;;;;27.99;40.22;99056.28;4487844;31;34081;-63
2021/07/05 04:45:28;;;;;;;8.48;6.00;;;;;;;28.00;40.15;99052.44;4500930;31;34072;-64
2021/07/05 04:47:58;;;;;;;11.07;5.68;;;;;;;28.00;40.15;99054.38;4500820;31;33817;-63
2021/07/05 04:50:25;;;;;;;7.78;5.45;;;;;;;28.00;40.19;99059.84;4499624;31;33517;-64
2021/07/05 04:52:53;;;;;;;8.48;5.28;;;;;;;28.00;40.21;99065.34;4499044;31;34006;-65
2021/07/05 04:55:21;;;;;;;11.00;5.50;;;;;;;27.99;40.17;99063.69;4484710;32;34202;-63
2021/07/05 04:57:49;;;;;;;10.80;5.45;;;;;;;27.98;40.20;99065.63;4485094;32;33714;-64
2021/07/05 05:00:22;;;;;;;8.48;5.55;;;;;;;27.98;40.16;99071.13;4485056;32;33340;-64
2021/07/05 05:02:52;;;;;;;10.32;5.62;;;;;;;28.01;40.06;99069.72;4486045;31;34856;-63
2021/07/05 05:05:20;;;;;;;10.23;5.57;;;;;;;28.02;40.09;99063.13;4500853;31;33834;-63
2021/07/05 05:07:48;;;;;;;16.12;6.43;;;;;;;28.00;40.16;99062.59;4499802;31;34951;-64
2021/07/05 05:10:17;;;;;;;7.28;5.28;;;;;;;28.01;40.17;99067.81;4500622;31;33638;-63
2021/07/05 05:12:45;;;;;;;17.05;6.53;;;;;;;28.03;40.07;99070.28;4500003;31;33934;-63
2021/07/05 05:15:14;;;;;;;13.80;5.40;;;;;;;28.02;40.18;99069.44;4483478;32;34754;-64
2021/07/05 05:17:42;;;;;;;8.88;5.30;;;;;;;28.03;40.17;99070.28;4484958;32;33496;-63
2021/07/05 05:20:10;;;;;;;9.30;5.47;;;;;;;28.02;40.10;99071.34;4485214;32;33483;-64
2021/07/05 05:22:38;;;;;;;11.98;5.95;;;;;;;28.01;40.14;99069.72;4484766;32;33492;-63
2021/07/05 05:25:07;;;;;;;8.48;5.15;;;;;;;28.02;40.12;99068.63;4498838;31;34067;-64
2021/07/05 05:27:37;;;;;;;9.98;5.55;;;;;;;28.00;40.22;99065.34;4500648;31;34820;-64
2021/07/05 05:30:09;;;;;;;14.15;6.40;;;;;;;28.00;40.18;99060.69;4499144;31;33400;-63
2021/07/05 05:32:44;;;;;;;9.15;6.05;;;;;;;28.00;40.15;99063.41;4500079;31;34989;-64
2021/07/05 05:35:14;;;;;;;12.77;5.55;;;;;;;28.00;40.19;99062.59;4483867;32;34061;-64
2021/07/05 05:37:42;;;;;;;9.85;5.32;;;;;;;28.03;40.12;99062.87;4484705;32;34067;-64
2021/07/05 05:40:10;;;;;;;14.80;5.35;;;;;;;28.01;40.26;99075.22;4484758;32;34491;-63
2021/07/05 05:42:37;;;;;;;16.12;5.62;;;;;;;28.02;40.13;99069.44;4484493;32;33890;-64
2021/07/05 05:45:07;;;;;;;8.70;5.45;;;;;;;28.04;40.17;99080.16;4494256;31;34899;-62
2021/07/05 05:47:35;;;;;;;12.80;5.57;;;;;;;28.02;40.21;99069.44;4497838;31;33979;-63
2021/07/05 05:50:04;;;;;;;10.93;5.75;;;;;;;28.05;40.22;99076.31;4496856;31;33718;-63
2021/07/05 05:52:31;;;;;;;13.07;6.20;;;;;;;28.02;40.38;99077.66;4498738;31;33908;-63
2021/07/05 05:54:59;;;;;;;14.13;5.72;;;;;;;28.00;40.55;99074.38;4496440;31;34846;-62
2021/07/05 05:57:27;;;;;;;13.38;5.78;;;;;;;27.99;40.63;99080.97;4487942;31;35204;-63
2021/07/05 05:59:57;;;;;;;12.55;5.30;;;;;;;28.00;40.57;99073.56;4500366;31;33686;-64
2021/07/05 06:02:26;;;;;;;14.45;6.68;;;;;;;28.04;40.44;99088.38;4500451;31;34731;-62
2021/07/05 06:04:54;;;;;;;11.90;5.55;;;;;;;28.04;40.48;99085.63;4498409;31;35091;-61
2021/07/05 06:07:21;;;;;;;15.75;5.85;;;;;;;28.05;40.43;99074.38;4487553;31;33672;-62
2021/07/05 06:09:48;;;;;;;15.05;5.93;;;;;;;28.05;40.41;99081.78;4475307;31;33042;-61
2021/07/05 06:12:18;;;;;;;13.02;5.85;;;;;;;28.04;40.50;99074.66;4499271;31;34107;-62
2021/07/05 06:14:46;;;;;;;16.62;5.53;;;;;;;28.04;40.48;99074.66;4480697;31;34855;-61
2021/07/05 06:17:13;;;;;;;13.20;6.32;;;;;;;28.04;40.68;99083.72;4483966;31;33219;-61
2021/07/05 06:19:41;;;;;;;12.50;6.10;;;;;;;28.02;40.73;99088.63;4459340;32;33686;-61
2021/07/05 06:22:18;;;;;;;9.07;5.45;;;;;;;28.04;40.66;99085.63;4454620;32;33854;-60
2021/07/05 06:24:47;;;;;;;17.77;5.60;;;;;;;28.05;40.70;99093.59;4481302;31;33990;-62
2021/07/05 06:27:15;;;;;;;14.13;5.65;;;;;;;28.02;40.80;99098.78;4500358;31;33979;-61
2021/07/05 06:29:43;;;;;;;16.37;5.65;;;;;;;28.03;40.76;99089.47;4500344;31;33486;-63
2021/07/05 06:32:11;;;;;;;10.60;5.55;;;;;;;28.03;40.70;99098.53;4490458;31;33543;-63
2021/07/05 06:34:39;;;;;;;9.95;5.37;;;;;;;28.03;40.58;99095.78;4484232;32;34005;-63
2021/07/05 06:37:07;;;;;;;13.35;6.00;;;;;;;28.02;40.58;99085.87;4484261;32;33962;-62
2021/07/05 06:39:35;;;;;;;15.00;5.53;;;;;;;28.02;40.58;99099.59;4480185;32;33510;-63
2021/07/05 06:42:03;;;;;;;14.32;5.62;;;;;;;28.03;40.48;99095.78;4473787;31;34039;-64
2021/07/05 06:44:30;;;;;;;15.20;5.70;;;;;;;28.02;40.45;99099.59;4490672;31;34619;-63
2021/07/05 06:46:58;;;;;;;10.55;5.50;;;;;;;28.02;40.42;99098.78;4479378;31;34072;-62
2021/07/05 06:49:26;;;;;;;8.63;5.40;;;;;;;28.02;40.37;99096.84;4500278;31;33696;-62
2021/07/05 06:51:53;;;;;;;8.25;5.62;;;;;;;28.01;40.32;99102.63;4489783;31;34208;-62
2021/07/05 06:54:21;;;;;;;12.13;5.82;;;;;;;28.00;40.28;99104.56;4490672;31;34228;-62
2021/07/05 06:56:48;;;;;;;16.00;6.10;;;;;;;28.00;40.24;99106.47;4498211;31;34781;-62
2021/07/05 06:59:16;;;;;;;10.60;5.85;;;;;;;28.01;40.22;99116.34;4499275;31;32874;-62
2021/07/05 07:01:45;;;;;;;10.15;5.53;;;;;;;27.99;40.21;99116.63;4499774;31;33473;-62
2021/07/05 07:04:13;;;;;;;8.85;5.43;;;;;;;27.99;40.17;99121.28;4500004;31;34050;-62
2021/07/05 07:06:41;;;;;;;11.35;5.43;;;;;;;28.00;40.16;99125.66;4500261;31;33260;-61
2021/07/05 07:09:09;;;;;;;10.57;6.10;;;;;;;27.99;40.14;99137.75;4499598;31;34285;-63
2021/07/05 07:11:36;;;;;;;8.25;5.72;;;;;;;27.98;40.16;99134.19;4498954;31;33960;-63
2021/07/05 07:14:06;;;;;;;10.40;5.53;;;;;;;27.98;40.15;99145.16;4491237;31;35016;-63
2021/07/05 07:16:41;;;;;;;7.85;4.97;;;;;;;27.97;40.15;99149.78;4499605;31;33858;-62
2021/07/05 07:19:18;;;;;;;9.68;5.80;;;;;;;27.96;40.15;99156.38;4499750;31;33228;-62
2021/07/05 07:21:47;;;;;;;9.38;5.28;;;;;;;27.99;40.14;99159.69;4495803;31;33915;-63
2021/07/05 07:24:15;;;;;;;10.63;5.75;;;;;;;27.97;40.13;99159.94;4498098;31;32472;-63
2021/07/05 07:26:43;;;;;;;10.27;5.30;;;;;;;27.96;40.13;99159.12;4496551;31;33606;-62
2021/07/05 07:29:11;;;;;;;11.65;5.30;;;;;;;27.95;40.18;99162.94;4499688;31;33149;-62
2021/07/05 07:31:39;;;;;;;11.90;5.80;;;;;;;27.94;40.16;99158.56;4499722;31;34320;-63
2021/07/05 07:34:07;;;;;;;12.20;5.35;;;;;;;27.93;40.20;99159.69;4499455;31;34882;-62
2021/07/05 07:36:35;;;;;;;9.20;5.43;;;;;;;27.94;40.11;99165.97;4499618;31;34408;-63
2021/07/05 07:39:09;;;;;;;9.80;5.12;;;;;;;27.93;40.19;99162.41;4499573;31;35330;-63
2021/07/05 07:41:37;;;;;;;12.27;5.35;;;;;;;27.92;40.17;99171.72;4499379;31;33951;-63
2021/07/05 07:44:04;;;;;;;11.15;6.18;;;;;;;27.93;40.05;99167.91;4499665;31;33368;-62
2021/07/05 07:46:32;;;;;;;10.13;5.62;;;;;;;27.93;40.08;99167.91;4499559;31;34473;-62
2021/07/05 07:49:00;;;;;;;9.75;5.62;;;;;;;27.93;40.08;99165.16;4499529;31;33873;-63
2021/07/05 07:51:27;;;;;;;8.85;5.60;;;;;;;27.94;40.03;99168.72;4499637;31;34617;-63
2021/07/05 07:53:56;;;;;;;11.63;5.18;;;;;;;27.95;39.98;99167.63;4499186;31;34153;-63
2021/07/05 07:56:24;;;;;;;8.15;4.93;;;;;;;27.93;39.97;99165.16;4499230;31;33996;-63
2021/07/05 07:58:52;;;;;;;9.57;5.47;;;;;;;27.94;39.95;99169.53;4498193;31;34238;-63
2021/07/05 08:01:19;;;;;;;9.45;5.57;;;;;;;27.94;39.99;99172.28;4495501;31;33861;-64
2021/07/05 08:03:47;;;;;;;8.10;5.55;;;;;;;27.93;39.97;99165.16;4499133;31;34290;-62
2021/07/05 08:06:14;;;;;;;15.18;5.82;;;;;;;27.93;39.96;99167.91;4499338;31;34600;-63
2021/07/05 08:08:42;;;;;;;10.43;5.53;;;;;;;27.95;39.93;99168.44;4499570;31;33545;-63
2021/07/05 08:11:09;;;;;;;9.93;5.30;;;;;;;27.95;39.97;99162.94;4499206;31;33857;-63
2021/07/05 08:13:38;;;;;;;8.70;5.55;;;;;;;27.95;40.06;99162.13;4499414;31;34066;-63
2021/07/05 08:16:05;;;;;;;9.50;5.20;;;;;;;27.96;40.13;99161.03;4499234;31;34106;-62
2021/07/05 08:18:33;;;;;;;10.57;5.82;;;;;;;27.97;40.15;99163.50;4499029;31;33408;-64
2021/07/05 08:21:01;;;;;;;7.07;5.00;;;;;;;27.97;40.19;99159.94;4499041;31;34908;-62
2021/07/05 08:23:28;;;;;;;8.82;5.78;;;;;;;27.99;40.20;99157.75;4499019;31;34764;-62
2021/07/05 08:25:56;;;;;;;10.98;5.50;;;;;;;27.99;40.23;99152.28;4498910;31;34371;-63
2021/07/05 08:28:24;;;;;;;9.93;6.07;;;;;;;28.00;40.23;99156.66;4498981;31;33759;-64
2021/07/05 08:30:53;;;;;;;7.95;5.28;;;;;;;28.01;40.30;99152.81;4499046;31;34455;-63
2021/07/05 08:33:21;;;;;;;10.40;5.43;;;;;;;28.03;40.32;99152.56;4498823;31;34101;-62
2021/07/05 08:35:49;;;;;;;10.65;5.72;;;;;;;28.05;40.28;99150.34;4499063;31;33997;-62
2021/07/05 08:38:16;;;;;;;7.65;5.05;;;;;;;28.04;40.32;99146.78;4499147;31;33478;-62
2021/07/05 08:40:44;;;;;;;10.75;5.57;;;;;;;28.06;40.32;99143.75;4498895;31;33635;-62
2021/07/05 08:43:11;;;;;;;11.50;5.45;;;;;;;28.06;40.22;99152.00;4499050;31;33825;-62
2021/07/05 08:45:41;;;;;;;13.00;5.57;;;;;;;28.05;40.22;99150.34;4499026;31;33970;-63
2021/07/05 08:48:09;;;;;;;11.65;5.43;;;;;;;28.06;40.19;99149.25;4498919;31;34508;-61
2021/07/05 08:50:36;;;;;;;7.82;5.40;;;;;;;28.07;40.16;99148.16;4484899;31;33846;-63
2021/07/05 08:53:04;;;;;;;11.12;6.72;;;;;;;28.06;40.25;99152.81;4498781;31;33827;-62
2021/07/05 08:55:32;;;;;;;9.10;5.72;;;;;;;28.07;40.26;99156.38;4498550;31;34068;-62
2021/07/05 08:57:59;;;;;;;11.10;5.53;;;;;;;28.05;40.28;99155.84;4498718;31;32635;-62
2021/07/05 09:00:31;;;;;;;9.82;5.90;;;;;;;28.05;40.22;99159.41;4498636;31;33978;-63
2021/07/05 09:03:00;;;;;;;10.60;5.70;;;;;;;28.06;40.22;99155.56;4495788;31;33580;-63
2021/07/05 09:05:27;;;;;;;8.13;5.43;;;;;;;28.05;40.20;99162.16;4493104;31;33855;-63
2021/07/05 09:07:57;;;;;;;8.65;5.32;;;;;;;28.04;40.26;99162.44;4498262;31;33752;-63
2021/07/05 09:10:26;;;;;;;9.55;6.10;;;;;;;28.04;40.27;99170.66;4500667;31;35192;-62
2021/07/05 09:13:23;;;;;;;9.05;5.82;;;;;;;28.04;40.22;99178.87;4500501;31;34286;-63
2021/07/05 09:15:52;;;;;;;19.50;6.47;;;;;;;28.08;40.08;99177.25;4495724;31;35042;-63
2021/07/05 09:18:27;;;;;;;20.98;6.72;;;;;;;28.05;40.28;99184.09;4499517;31;33946;-64
2021/07/05 09:20:58;;;;;;;17.08;6.72;;;;;;;28.06;40.32;99174.75;4498966;31;34651;-63
2021/07/05 09:23:26;;;;;;;18.08;6.32;;;;;;;28.05;40.40;99167.63;4489591;31;34080;-64
2021/07/05 09:25:53;;;;;;;17.35;6.85;;;;;;;28.07;40.42;99170.09;4484648;31;34693;-67
2021/07/05 09:28:24;;;;;;;23.95;6.68;;;;;;;28.07;40.49;99175.56;4485577;31;33683;-62
2021/07/05 09:30:56;;;;;;;39.05;8.80;;;;;;;28.10;40.65;99184.09;4484944;32;33842;-63
2021/07/05 09:33:26;;;;;;;15.27;6.85;;;;;;;28.10;40.83;99178.59;4494432;31;33762;-62
2021/07/05 09:36:02;;;;;;;22.33;7.07;;;;;;;28.11;40.87;99169.25;4498497;31;33851;-66
2021/07/05 09:38:38;;;;;;;27.02;7.35;;;;;;;28.17;40.86;99167.38;4500084;31;34241;-62
2021/07/05 09:41:20;;;;;;;12.20;6.95;;;;;;;28.15;41.06;99159.41;4499114;31;33906;-63
2021/07/05 09:43:53;;;;;;;17.85;7.15;;;;;;;28.18;41.01;99147.87;4493296;31;33761;-62
2021/07/05 09:46:36;;;;;;;16.87;7.70;;;;;;;28.16;40.95;99152.81;4495539;31;33969;-63
2021/07/05 09:49:21;;;;;;;31.83;7.72;;;;;;;28.20;40.79;99153.91;4500150;31;33510;-62
2021/07/05 09:52:05;;;;;;;24.77;7.55;;;;;;;28.19;40.79;99149.53;4499631;31;33504;-62
2021/07/05 09:54:33;;;;;;;21.33;7.55;;;;;;;28.21;40.89;99158.31;4500155;31;34238;-61
2021/07/05 09:57:03;;;;;;;25.70;7.00;;;;;;;28.20;40.86;99144.88;4500094;31;34008;-64
2021/07/05 09:59:30;;;;;;;25.95;7.90;;;;;;;28.22;40.80;99149.00;4498472;31;34215;-61
2021/07/05 10:01:59;;;;;;;20.10;6.62;;;;;;;28.23;40.72;99147.06;4498979;31;33664;-61
2021/07/05 10:04:29;;;;;;;21.35;7.70;;;;;;;28.22;40.79;99149.00;4500405;31;33918;-62
2021/07/05 10:06:58;;;;;;;23.05;6.82;;;;;;;28.23;40.78;99149.81;4500118;31;34238;-62
2021/07/05 10:09:35;;;;;;;16.60;7.03;;;;;;;28.23;40.75;99152.56;4499129;31;33775;-62
2021/07/05 10:12:15;;;;;;;18.98;7.35;;;;;;;28.25;40.71;99160.50;4498725;31;33952;-63
2021/07/05 10:14:47;;;;;;;15.48;7.07;;;;;;;28.26;40.55;99156.66;4500066;31;34921;-62
2021/07/05 10:17:15;;;;;;;17.02;6.70;;;;;;;28.23;40.58;99156.13;4499119;31;33673;-63
2021/07/05 10:19:43;;;;;;;19.98;7.10;;;;;;;28.20;40.76;99159.41;4499625;31;33616;-62
2021/07/05 10:22:12;;;;;;;14.23;6.55;;;;;;;28.20;40.74;99156.66;4495300;31;34640;-62
2021/07/05 10:24:43;;;;;;;15.50;7.45;;;;;;;28.20;40.78;99161.31;4499580;31;34991;-63
2021/07/05 10:27:11;;;;;;;13.52;6.68;;;;;;;28.19;40.75;99146.78;4498119;31;33894;-62
2021/07/05 10:29:39;;;;;;;13.18;7.03;;;;;;;28.21;40.75;99147.34;4499047;31;34256;-62
2021/07/05 10:32:07;;;;;;;16.62;7.03;;;;;;;28.20;40.76;99147.59;4493239;31;34048;-62
2021/07/05 10:34:36;;;;;;;15.65;6.97;;;;;;;28.21;40.68;99138.28;4484467;32;34253;-62
2021/07/05 10:37:04;;;;;;;12.45;7.05;;;;;;;28.20;40.75;99147.59;4470264;32;34197;-62
2021/07/05 10:39:32;;;;;;;14.65;7.03;;;;;;;28.20;40.69;99145.69;4470186;32;33101;-62
2021/07/05 10:42:00;;;;;;;14.77;6.85;;;;;;;28.22;40.66;99153.66;4483859;31;33948;-63
2021/07/05 10:44:41;;;;;;;10.38;6.43;;;;;;;28.22;40.56;99149.00;4483010;31;34223;-63
2021/07/05 10:47:08;;;;;;;13.93;6.95;;;;;;;28.25;40.55;99149.53;4484387;32;33584;-62
2021/07/05 10:49:45;;;;;;;14.65;7.07;;;;;;;28.19;40.72;99155.03;4484331;32;33517;-62
2021/07/05 10:52:16;;;;;;;10.70;6.47;;;;;;;28.18;40.73;99156.13;4489632;31;34140;-62
2021/07/05 10:54:54;;;;;;;12.05;7.20;;;;;;;28.19;40.72;99140.47;4499885;31;34124;-62
2021/07/05 10:57:32;;;;;;;11.55;6.55;;;;;;;28.20;40.64;99140.19;4500143;31;34173;-61
2021/07/05 11:00:08;;;;;;;10.82;7.07;;;;;;;28.19;40.66;99135.00;4498738;31;33637;-62
2021/07/05 11:02:49;;;;;;;10.43;6.35;;;;;;;28.22;40.57;99140.75;4498488;31;33281;-62
2021/07/05 11:05:32;;;;;;;9.77;6.95;;;;;;;28.21;40.61;99149.25;4500148;31;34850;-62
2021/07/05 11:08:20;;;;;;;10.77;6.15;;;;;;;28.20;40.63;99139.37;4500182;31;34568;-62
2021/07/05 11:10:47;;;;;;;13.40;6.50;;;;;;;28.25;40.54;99149.53;4500018;31;33988;-62
2021/07/05 11:13:17;;;;;;;11.88;6.47;;;;;;;28.22;40.49;99148.19;4488599;31;33869;-62
2021/07/05 11:15:55;;;;;;;11.35;6.32;;;;;;;28.21;40.56;99146.50;4484192;32;34763;-62
2021/07/05 11:18:35;;;;;;;11.25;6.78;;;;;;;28.24;40.48;99140.47;4484148;32;33901;-62
2021/07/05 11:21:04;;;;;;;12.63;6.55;;;;;;;28.22;40.55;99145.44;4484179;32;33353;-63
2021/07/05 11:23:53;;;;;;;9.93;6.37;;;;;;;28.21;40.59;99135.53;4496429;31;34005;-62
2021/07/05 11:26:41;;;;;;;11.98;6.35;;;;;;;28.24;40.51;99135.00;4499817;31;34800;-62
2021/07/05 11:29:14;;;;;;;11.73;6.47;;;;;;;28.21;40.49;99128.16;4499712;31;33761;-62
2021/07/05 11:31:59;;;;;;;9.52;6.32;;;;;;;28.21;40.53;99139.13;4498096;31;33646;-63
2021/07/05 11:34:34;;;;;;;9.65;6.40;;;;;;;28.22;40.43;99129.78;4484307;32;34540;-63
2021/07/05 11:37:11;;;;;;;9.60;6.30;;;;;;;28.21;40.50;99127.31;4484112;32;34642;-62
2021/07/05 11:39:44;;;;;;;8.85;6.40;;;;;;;28.21;40.43;99128.16;4483753;32;33940;-62